Hovedside
METAR-TAF:

METAR-TAF

Lufthavner :

Remada, Tunisia

breddegrad: 32-19N, lengdegrad: 010-24E, høyde over havet: 300 m

Gjeldene værobservasjon

Denne rapporten ble laget for 31 minutter siden, klokken 20:00 UTC
Flau vind
Temperatur 11°C
Luftfuktighet 50%
Trykk 1029 hPa

METAR: DTTD 182000Z AUTO 00000KT NCD 11/01 Q1029

Tid: 21:31 (20:31 UTC)


TAF: fraværende

Værobservasjoner og værvarsel for over 4000 flyplasser (METAR- og TAF-rapporter).

Tilgjengelige stasjoner er representert av de røde og gule prikkene på kartet.

Hold musepekeren over prikken for å se navnet på stasjonen.

Klikk så for å se værobservasjoner og -varsler.

For å forandre kartet kan du klikke på den grønne knappen med svart kryss for å zoome inn, på den grønne knappen med strek for å zoome ut, eller på de grønne pilene for å se tilstøtende kart.


METAR-TAF: